sensor_id;sensor_type;location;lat;lon;timestamp;P1;durP1;ratioP1;P2;durP2;ratioP2
42092;SDS011;28974;50.316;18.960;2023-05-23T00:06:25;49.58;;;16.23;;
42092;SDS011;28974;50.316;18.960;2023-05-23T00:18:25;27.50;;;12.73;;
42092;SDS011;28974;50.316;18.960;2023-05-23T00:30:27;36.50;;;16.15;;
42092;SDS011;28974;50.316;18.960;2023-05-23T00:42:27;40.47;;;21.05;;
42092;SDS011;28974;50.316;18.960;2023-05-23T00:54:28;39.55;;;21.60;;
42092;SDS011;28974;50.316;18.960;2023-05-23T01:06:30;32.22;;;14.85;;
42092;SDS011;28974;50.316;18.960;2023-05-23T01:18:34;28.17;;;13.95;;
42092;SDS011;28974;50.316;18.960;2023-05-23T01:30:38;36.00;;;14.63;;
42092;SDS011;28974;50.316;18.960;2023-05-23T01:42:39;41.55;;;22.73;;
42092;SDS011;28974;50.316;18.960;2023-05-23T01:54:39;41.83;;;17.73;;
42092;SDS011;28974;50.316;18.960;2023-05-23T02:06:41;33.30;;;17.90;;
42092;SDS011;28974;50.316;18.960;2023-05-23T02:18:46;35.95;;;18.77;;
42092;SDS011;28974;50.316;18.960;2023-05-23T02:30:46;35.22;;;19.88;;
42092;SDS011;28974;50.316;18.960;2023-05-23T02:42:47;56.47;;;26.98;;
42092;SDS011;28974;50.316;18.960;2023-05-23T02:54:47;35.35;;;20.05;;
42092;SDS011;28974;50.316;18.960;2023-05-23T03:06:48;37.83;;;20.08;;
42092;SDS011;28974;50.316;18.960;2023-05-23T03:18:48;42.53;;;19.42;;
42092;SDS011;28974;50.316;18.960;2023-05-23T03:30:50;34.85;;;18.50;;
42092;SDS011;28974;50.316;18.960;2023-05-23T03:43:03;23.48;;;13.30;;
42092;SDS011;28974;50.316;18.960;2023-05-23T03:55:06;39.17;;;13.23;;
42092;SDS011;28974;50.316;18.960;2023-05-23T04:07:09;27.17;;;13.65;;
42092;SDS011;28974;50.316;18.960;2023-05-23T04:19:12;33.28;;;12.63;;
42092;SDS011;28974;50.316;18.960;2023-05-23T04:31:12;37.38;;;12.88;;
42092;SDS011;28974;50.316;18.960;2023-05-23T04:43:13;23.70;;;11.63;;
42092;SDS011;28974;50.316;18.960;2023-05-23T04:55:25;23.35;;;11.45;;
42092;SDS011;28974;50.316;18.960;2023-05-23T05:07:25;26.83;;;12.10;;
42092;SDS011;28974;50.316;18.960;2023-05-23T05:19:26;23.25;;;13.05;;
42092;SDS011;28974;50.316;18.960;2023-05-23T05:31:27;30.90;;;12.73;;
42092;SDS011;28974;50.316;18.960;2023-05-23T05:43:28;31.17;;;14.20;;
42092;SDS011;28974;50.316;18.960;2023-05-23T05:55:29;31.92;;;14.02;;
42092;SDS011;28974;50.316;18.960;2023-05-23T06:07:30;31.63;;;12.93;;
42092;SDS011;28974;50.316;18.960;2023-05-23T06:19:30;24.73;;;11.90;;
42092;SDS011;28974;50.316;18.960;2023-05-23T06:31:31;32.38;;;12.60;;
42092;SDS011;28974;50.316;18.960;2023-05-23T06:43:31;33.08;;;14.65;;
42092;SDS011;28974;50.316;18.960;2023-05-23T06:55:47;24.20;;;12.23;;
42092;SDS011;28974;50.316;18.960;2023-05-23T07:07:50;33.55;;;14.45;;
42092;SDS011;28974;50.316;18.960;2023-05-23T07:19:51;42.53;;;16.40;;
42092;SDS011;28974;50.316;18.960;2023-05-23T07:31:52;51.07;;;22.73;;
42092;SDS011;28974;50.316;18.960;2023-05-23T07:43:54;58.03;;;25.80;;
42092;SDS011;28974;50.316;18.960;2023-05-23T07:55:55;50.25;;;22.85;;
42092;SDS011;28974;50.316;18.960;2023-05-23T08:07:59;29.65;;;11.23;;
42092;SDS011;28974;50.316;18.960;2023-05-23T08:19:59;23.88;;;9.60;;
42092;SDS011;28974;50.316;18.960;2023-05-23T08:32:01;20.08;;;8.95;;
42092;SDS011;28974;50.316;18.960;2023-05-23T08:44:02;27.05;;;9.85;;
42092;SDS011;28974;50.316;18.960;2023-05-23T08:56:07;21.77;;;9.18;;
42092;SDS011;28974;50.316;18.960;2023-05-23T09:08:15;22.85;;;8.65;;
42092;SDS011;28974;50.316;18.960;2023-05-23T09:20:16;16.57;;;8.67;;
42092;SDS011;28974;50.316;18.960;2023-05-23T09:32:25;29.83;;;9.77;;
42092;SDS011;28974;50.316;18.960;2023-05-23T09:44:27;23.05;;;8.68;;
42092;SDS011;28974;50.316;18.960;2023-05-23T09:56:27;25.50;;;7.53;;
42092;SDS011;28974;50.316;18.960;2023-05-23T10:08:38;16.10;;;6.85;;
42092;SDS011;28974;50.316;18.960;2023-05-23T10:20:39;18.33;;;7.68;;
42092;SDS011;28974;50.316;18.960;2023-05-23T10:32:41;11.70;;;7.03;;
42092;SDS011;28974;50.316;18.960;2023-05-23T10:44:42;15.23;;;6.07;;
42092;SDS011;28974;50.316;18.960;2023-05-23T10:56:42;13.95;;;6.60;;
42092;SDS011;28974;50.316;18.960;2023-05-23T11:08:43;13.95;;;6.93;;
42092;SDS011;28974;50.316;18.960;2023-05-23T11:20:45;13.85;;;6.45;;
42092;SDS011;28974;50.316;18.960;2023-05-23T11:32:50;19.33;;;7.60;;
42092;SDS011;28974;50.316;18.960;2023-05-23T11:44:52;24.83;;;8.07;;
42092;SDS011;28974;50.316;18.960;2023-05-23T11:56:56;34.65;;;7.70;;
42092;SDS011;28974;50.316;18.960;2023-05-23T12:08:58;14.82;;;8.25;;
42092;SDS011;28974;50.316;18.960;2023-05-23T12:20:58;29.20;;;10.50;;
42092;SDS011;28974;50.316;18.960;2023-05-23T12:32:59;40.80;;;13.55;;
42092;SDS011;28974;50.316;18.960;2023-05-23T12:44:59;27.15;;;14.82;;
42092;SDS011;28974;50.316;18.960;2023-05-23T12:57:00;30.00;;;15.45;;
42092;SDS011;28974;50.316;18.960;2023-05-23T13:09:00;46.05;;;26.38;;
42092;SDS011;28974;50.316;18.960;2023-05-23T13:21:01;22.38;;;10.65;;
42092;SDS011;28974;50.316;18.960;2023-05-23T13:33:01;27.98;;;10.02;;
42092;SDS011;28974;50.316;18.960;2023-05-23T13:45:02;17.00;;;8.73;;
42092;SDS011;28974;50.316;18.960;2023-05-23T13:57:04;15.00;;;9.10;;
42092;SDS011;28974;50.316;18.960;2023-05-23T14:09:04;29.98;;;11.30;;
42092;SDS011;28974;50.316;18.960;2023-05-23T14:21:05;28.25;;;14.80;;
42092;SDS011;28974;50.316;18.960;2023-05-23T14:33:05;17.45;;;12.48;;
42092;SDS011;28974;50.316;18.960;2023-05-23T14:45:06;19.45;;;11.95;;
42092;SDS011;28974;50.316;18.960;2023-05-23T14:57:06;31.48;;;13.75;;
42092;SDS011;28974;50.316;18.960;2023-05-23T15:09:08;29.33;;;16.45;;
42092;SDS011;28974;50.316;18.960;2023-05-23T15:21:09;56.25;;;34.63;;
42092;SDS011;28974;50.316;18.960;2023-05-23T15:33:11;42.28;;;26.52;;
42092;SDS011;28974;50.316;18.960;2023-05-23T15:45:11;58.72;;;37.50;;
42092;SDS011;28974;50.316;18.960;2023-05-23T15:57:12;46.28;;;19.10;;
42092;SDS011;28974;50.316;18.960;2023-05-23T16:09:12;37.75;;;16.60;;
42092;SDS011;28974;50.316;18.960;2023-05-23T16:21:13;48.65;;;26.23;;
42092;SDS011;28974;50.316;18.960;2023-05-23T16:33:19;40.22;;;21.95;;
42092;SDS011;28974;50.316;18.960;2023-05-23T16:45:19;30.00;;;18.35;;
42092;SDS011;28974;50.316;18.960;2023-05-23T16:57:20;36.13;;;19.40;;
42092;SDS011;28974;50.316;18.960;2023-05-23T17:09:21;40.60;;;22.53;;
42092;SDS011;28974;50.316;18.960;2023-05-23T17:21:21;33.15;;;21.55;;
42092;SDS011;28974;50.316;18.960;2023-05-23T17:33:21;39.08;;;22.92;;
42092;SDS011;28974;50.316;18.960;2023-05-23T17:45:22;35.10;;;22.92;;
42092;SDS011;28974;50.316;18.960;2023-05-23T17:57:22;41.83;;;27.73;;
42092;SDS011;28974;50.316;18.960;2023-05-23T18:09:23;34.03;;;21.63;;
42092;SDS011;28974;50.316;18.960;2023-05-23T18:21:23;38.75;;;20.08;;
42092;SDS011;28974;50.316;18.960;2023-05-23T18:33:23;34.65;;;18.73;;
42092;SDS011;28974;50.316;18.960;2023-05-23T18:45:24;42.92;;;20.60;;
42092;SDS011;28974;50.316;18.960;2023-05-23T18:57:25;35.58;;;21.15;;
42092;SDS011;28974;50.316;18.960;2023-05-23T19:09:26;31.70;;;20.50;;
42092;SDS011;28974;50.316;18.960;2023-05-23T19:21:26;46.10;;;25.50;;
42092;SDS011;28974;50.316;18.960;2023-05-23T19:33:27;55.22;;;27.98;;
42092;SDS011;28974;50.316;18.960;2023-05-23T19:45:27;47.92;;;27.05;;
42092;SDS011;28974;50.316;18.960;2023-05-23T19:57:28;44.38;;;27.40;;
42092;SDS011;28974;50.316;18.960;2023-05-23T20:09:28;47.17;;;29.88;;
42092;SDS011;28974;50.316;18.960;2023-05-23T20:21:29;39.17;;;28.67;;
42092;SDS011;28974;50.316;18.960;2023-05-23T20:33:29;47.55;;;28.70;;
42092;SDS011;28974;50.316;18.960;2023-05-23T20:45:32;43.05;;;27.77;;
42092;SDS011;28974;50.316;18.960;2023-05-23T20:57:33;42.67;;;28.52;;
42092;SDS011;28974;50.316;18.960;2023-05-23T21:09:35;53.28;;;31.30;;
42092;SDS011;28974;50.316;18.960;2023-05-23T21:21:41;49.55;;;31.50;;
42092;SDS011;28974;50.316;18.960;2023-05-23T21:33:42;58.20;;;30.08;;
42092;SDS011;28974;50.316;18.960;2023-05-23T21:45:42;49.17;;;29.75;;
42092;SDS011;28974;50.316;18.960;2023-05-23T21:57:42;44.50;;;28.90;;
42092;SDS011;28974;50.316;18.960;2023-05-23T22:09:43;50.08;;;30.05;;
42092;SDS011;28974;50.316;18.960;2023-05-23T22:21:43;49.78;;;29.45;;
42092;SDS011;28974;50.316;18.960;2023-05-23T22:33:44;47.47;;;26.15;;
42092;SDS011;28974;50.316;18.960;2023-05-23T22:45:44;43.45;;;26.50;;
42092;SDS011;28974;50.316;18.960;2023-05-23T22:57:44;39.63;;;26.58;;
42092;SDS011;28974;50.316;18.960;2023-05-23T23:09:45;47.08;;;27.30;;
42092;SDS011;28974;50.316;18.960;2023-05-23T23:21:45;45.30;;;27.20;;
42092;SDS011;28974;50.316;18.960;2023-05-23T23:33:45;58.00;;;30.17;;
42092;SDS011;28974;50.316;18.960;2023-05-23T23:45:47;51.55;;;29.55;;
42092;SDS011;28974;50.316;18.960;2023-05-23T23:57:47;55.83;;;30.10;;
